x

Ne Bahamas - 350 Nm Ene Of Nassau, Bahamas (41047) Wave Buoy

9:50pm - Thu 29th Jan 2015 All times are UTC.

  • Sig Wave height 9.5ft
  • Peak Period 11s
  • Wind
    13mph, 18mph gusts
  • Sea Temp 76°f
  • Air Temp 66°f
  • Sea Pressure 1021.5mb

More Historic Weather Station data

Upgrade to MSW Pro to gain access to the past 30 days of data for over 8000 Wavebouys and Weather Stations around the globe.

Join Pro

Comparision Forecast

View Surf forecast
   
Thu 01/29 9:50pm 9.5ft 11s  -  13 18 mph 1021.5mb 76f 66f
8:50pm 9ft 10s 7s 16 22 mph 1021mb 76f 66f
7:50pm 9.5ft 11s 7s 20 25 mph 1020.9mb 76f 66f
5:50pm 9.5ft 11s 7s 16 22 mph 1021.4mb 76f 65f
4:50pm 9ft 9s 7s 16 22 mph 1022.1mb 76f 65f
3:50pm 9ft 9s 7s 16 22 mph 1022.7mb 76f 65f
2:50pm 9ft 9s 7s 16 22 mph 1022.8mb 76f 65f
1:50pm 9ft 9s 7s 22 29 mph 1021.8mb 75f 64f
12:50pm 9.5ft 9s 7s 16 22 mph 1021.4mb 76f 64f
11:50am 9.5ft 9s 7s 18 25 mph 1020.7mb 75f 65f
10:50am 10ft 10s 7s 16 20 mph 1020mb 76f 65f
9:50am 11ft 9s 8s 18 22 mph 1019.3mb 76f 65f
8:50am 12ft 10s 8s 18 22 mph 1019mb 76f 65f
7:50am 11ft 9s 7s 18 25 mph 1018.9mb 76f 65f
6:50am 11.5ft 10s 8s 20 25 mph 1018.7mb 76f 65f
5:50am 12ft 13s 8s 22 29 mph 1018.9mb 76f 65f
4:50am 11ft 10s 7s 20 29 mph 1019.1mb 76f 65f
3:50am 12ft 9s 7s 22 27 mph 1019mb 76f 65f
2:50am 11ft 9s 7s 27 31 mph 1018.4mb 76f 65f
1:50am 11.5ft 10s 7s 22 27 mph 1018.1mb 76f 66f
12:50am 10ft 9s 7s 22 29 mph 1017.5mb 76f 66f
Wed 01/28 11:50pm 11ft 11s 7s 22 29 mph 1016.6mb 76f 67f
10:50pm 11ft 8s 7s 29 38 mph 1015.6mb 76f 67f
9:50pm 11ft 11s 7s 27 34 mph 1015.1mb 76f 67f
8:50pm 11ft 10s 7s 27 34 mph 1014.5mb 76f 68f
7:50pm 11ft 11s 7s 25 31 mph 1014.1mb 76f 68f
6:50pm 12ft 10s 8s 20 27 mph 1014.1mb 76f 68f
5:50pm 11.5ft 11s 8s 20 25 mph 1014.3mb 76f 68f
4:50pm 12ft 11s 8s 20 25 mph 1015.2mb 76f 67f
3:50pm 11ft 11s 8s 20 22 mph 1015.3mb 76f 67f
2:50pm 12ft 12s 8s 13 18 mph 1015.6mb 76f 68f
1:50pm 12ft 11s 8s 20 27 mph 1015.1mb 76f 67f
12:50pm 13ft 11s 8s 9 13 mph 1014.7mb 76f 69f
11:50am 13ft 11s 8s 13 18 mph 1013.9mb 76f 69f
10:50am 13ft 11s 8s 22 29 mph 1013.2mb 76f 71f
9:50am 13ft 11s 8s 22 27 mph 1012.6mb 76f 71f
8:50am 13ft 11s 8s 25 29 mph 1012.2mb 76f 70f
7:50am 14.5ft 11s 8s 25 31 mph 1011.9mb 76f 69f
6:50am 14ft 11s 8s 27 34 mph 1011.8mb 76f 71f
5:50am 15.5ft 11s 8s 27 34 mph 1012.3mb 76f 70f
4:50am 15ft 11s 8s 27 36 mph 1012.3mb 76f 70f
3:50am 15ft 11s 8s 25 29 mph 1012.6mb 76f 70f
2:50am 15ft 11s 8s 27 34 mph 1012.3mb 76f 72f
1:50am 14.5ft 11s 8s 29 36 mph 1011.8mb 76f 72f
12:50am 14ft 11s 8s 27 31 mph 1011.5mb 76f 72f
Tue 01/27 11:50pm 15ft 11s 8s 27 31 mph 1010.8mb 76f 72f
10:50pm 15.5ft 11s 8s 25 34 mph 1010.4mb 76f 71f
9:50pm 14ft 11s 8s 25 34 mph 1010mb 76f 71f
8:50pm 15ft 11s 8s 25 31 mph 1009.7mb 77f 72f
7:50pm 14.5ft 11s 8s 29 34 mph 1009.2mb 77f 72f
6:50pm 15ft 11s 8s 29 36 mph 1009.2mb 77f 71f
5:50pm 15ft 11s 8s 27 34 mph 1009.4mb 77f 72f
4:50pm 13.5ft 11s 8s 29 36 mph 1010mb 76f 72f
3:50pm 14.5ft 11s 8s 34 40 mph 1010.1mb 76f 72f
2:50pm 15ft 10s 8s 31 36 mph 1010.1mb 76f 73f
1:50pm 14ft 11s 8s 29 36 mph 1009.4mb 76f 73f
12:50pm 15ft 10s 8s 29 36 mph 1008.7mb 76f 73f
11:50am 14ft 9s 7s 31 38 mph 1007.9mb 76f 73f
10:50am 15ft 10s 8s 31 36 mph 1007.3mb 76f 73f
9:50am 15.5ft 9s 8s 31 40 mph 1006.7mb 76f 73f
8:50am 13ft 10s 7s 31 40 mph 1006.9mb 76f 73f
7:50am 13ft 10s 7s 29 34 mph 1007.1mb 76f 72f
6:50am 12.5ft 9s 7s 27 36 mph 1007.6mb 76f 72f
5:50am 13ft 9s 7s 27 34 mph 1008.1mb 76f 72f
4:50am 12.5ft 9s 7s 29 34 mph 1008.4mb 76f 73f
3:50am 12ft 9s 7s 27 38 mph 1008.7mb 76f 71f
2:50am 12ft 8s 7s 29 34 mph 1008.1mb 76f 73f
1:50am 12ft 8s 7s 31 38 mph 1007.8mb 76f 74f
12:50am 11ft 8s 6s 29 36 mph 1008.1mb 76f 74f
Mon 01/26 11:50pm 10ft 7s 6s 29 36 mph 1007.6mb 76f 74f
10:50pm 9ft 6s 6s 34 40 mph 1006.8mb 76f 75f
9:50pm 7.5ft 6s 5s 27 34 mph 1007.1mb 76f 73f
8:50pm 7ft 6s 5s 27 34 mph 1007.3mb 76f 75f
7:50pm 6ft 5s 5s 25 31 mph 1007.2mb 76f 72f
6:50pm 5ft 8s 6s 27 43 mph 1006.9mb 76f 73f
5:50pm 5ft 9s 6s 20 25 mph 1008.7mb 76f 73f
4:50pm 5.5ft 8s 7s 16 22 mph 1010.4mb 76f 70f
3:50pm 5.5ft 8s 7s 7 9 mph 1011.7mb 76f 73f
2:50pm 5ft 9s 7s 7
mph
1012.6mb 76f 72f
1:50pm 5ft 8s 7s 4 7 mph 1013.1mb 76f 71f
12:50pm 5ft 8s 7s 4 7 mph 1013.1mb 76f 71f
11:50am 5ft 9s 7s 7 9 mph 1012.6mb 76f 71f
10:50am 5.5ft 8s 7s 7 9 mph 1012.6mb 76f 71f
9:50am 5.5ft 9s 7s 2 4 mph 1013.2mb 76f 71f
8:50am 5.5ft 8s 7s 2 4 mph 1013.2mb 76f 70f
7:50am 5.5ft 9s 7s 2 4 mph 1013.9mb 76f 71f
6:50am 6ft 10s 7s 4 7 mph 1014.5mb 76f 72f
5:50am 6ft 10s 7s  -  2 mph 1014.6mb 76f 72f
4:50am 6.5ft 10s 7s 4
mph
1015mb 76f 72f
3:50am 6.5ft 10s 7s  -  2 mph 1015.4mb 76f 72f
2:50am 7ft 10s 7s 2 4 mph 1015.3mb 76f 72f
1:50am 6.5ft 10s 7s  -  2 mph 1015.5mb 76f 72f
12:50am 7ft 11s 7s 2 7 mph 1016mb 76f 72f
Sun 01/25 11:50pm 7ft 10s 7s 2 7 mph 1015.9mb 76f 72f